createdAt,value
2022-10-01T00:02:07.207Z,101051.19
2022-10-01T00:04:37.369Z,101066.72
2022-10-01T00:07:09.520Z,101077.75
2022-10-01T00:09:37.096Z,101083.22
2022-10-01T00:12:04.237Z,101074.28
2022-10-01T00:14:31.340Z,101076.34
2022-10-01T00:16:58.357Z,101078.16
2022-10-01T00:19:25.356Z,101087.97
2022-10-01T00:21:52.302Z,101087.25
2022-10-01T00:24:19.390Z,101092.72
2022-10-01T00:26:47.713Z,101108.78
2022-10-01T00:29:15.409Z,101106.97
2022-10-01T00:31:43.683Z,101110.50
2022-10-01T00:34:15.216Z,101113.94
2022-10-01T00:36:42.483Z,101115.69
2022-10-01T00:39:12.023Z,101113.00
2022-10-01T00:41:39.582Z,101116.56
2022-10-01T00:44:33.357Z,101113.84
2022-10-01T00:47:10.656Z,101116.44
2022-10-01T00:49:39.908Z,101119.16
2022-10-01T00:52:13.864Z,101119.88
2022-10-01T00:54:53.988Z,101121.72
2022-10-01T00:57:25.296Z,101115.47
2022-10-01T00:59:57.052Z,101120.00
2022-10-01T01:02:24.129Z,101119.16
2022-10-01T01:04:51.250Z,101129.03
2022-10-01T01:07:18.995Z,101137.13
2022-10-01T01:09:49.722Z,101128.19
2022-10-01T01:12:54.013Z,101120.19
2022-10-01T01:15:41.761Z,101124.72
2022-10-01T01:18:21.920Z,101122.03
2022-10-01T01:21:16.327Z,101125.81
2022-10-01T01:24:30.280Z,101123.44
2022-10-01T01:27:21.788Z,101122.81
2022-10-01T01:30:15.055Z,101118.53
2022-10-01T01:33:11.945Z,101114.25
2022-10-01T01:35:48.560Z,101113.41
2022-10-01T01:38:24.453Z,101109.81
2022-10-01T01:40:55.903Z,101119.50
2022-10-01T01:43:38.147Z,101122.44
2022-10-01T01:46:10.222Z,101110.03
2022-10-01T01:48:41.798Z,101111.88
2022-10-01T01:51:25.287Z,101117.25
2022-10-01T01:53:52.315Z,101120.09
2022-10-01T01:56:19.531Z,101119.34
2022-10-01T01:58:47.069Z,101125.56
2022-10-01T02:01:40.516Z,101117.50
2022-10-01T02:04:33.731Z,101120.31
2022-10-01T02:07:25.184Z,101112.34
2022-10-01T02:10:44.763Z,101112.56
2022-10-01T02:13:29.859Z,101120.78
2022-10-01T02:16:10.147Z,101106.53
2022-10-01T02:18:52.962Z,101119.16
2022-10-01T02:21:39.959Z,101106.78
2022-10-01T02:24:19.308Z,101110.34
2022-10-01T02:26:49.920Z,101112.28
2022-10-01T02:29:20.991Z,101112.38
2022-10-01T02:31:53.430Z,101099.28
2022-10-01T02:34:24.874Z,101098.53
2022-10-01T02:36:54.269Z,101092.41
2022-10-01T02:39:23.896Z,101097.03
2022-10-01T02:41:53.219Z,101092.72
2022-10-01T02:44:38.180Z,101093.72
2022-10-01T02:47:25.889Z,101097.63
2022-10-01T02:49:53.770Z,101086.22
2022-10-01T02:52:34.349Z,101079.09
2022-10-01T02:55:11.191Z,101086.53
2022-10-01T02:57:38.630Z,101096.66
2022-10-01T03:00:11.390Z,101094.31
2022-10-01T03:02:38.502Z,101092.72
2022-10-01T03:05:06.753Z,101091.84
2022-10-01T03:07:35.833Z,101097.25
2022-10-01T03:10:08.323Z,101104.47
2022-10-01T03:12:36.185Z,101112.00
2022-10-01T03:15:04.527Z,101113.19
2022-10-01T03:17:31.582Z,101118.78
2022-10-01T03:19:58.548Z,101115.34
2022-10-01T03:22:25.543Z,101122.69
2022-10-01T03:24:53.746Z,101121.06
2022-10-01T03:27:22.184Z,101124.81
2022-10-01T03:29:49.667Z,101124.19
2022-10-01T03:32:17.488Z,101136.88
2022-10-01T03:34:45.218Z,101143.34
2022-10-01T03:37:12.367Z,101136.31
2022-10-01T03:39:39.887Z,101141.06
2022-10-01T03:42:07.154Z,101131.25
2022-10-01T03:44:34.132Z,101139.44
2022-10-01T03:47:01.091Z,101141.28
2022-10-01T03:49:28.052Z,101142.13
2022-10-01T03:51:55.290Z,101143.84
2022-10-01T03:54:22.570Z,101145.59
2022-10-01T03:56:49.880Z,101147.38
2022-10-01T03:59:16.945Z,101151.81
2022-10-01T04:01:44.010Z,101151.81
2022-10-01T04:04:11.278Z,101152.78
2022-10-01T04:06:38.428Z,101148.38
2022-10-01T04:09:05.538Z,101148.38
2022-10-01T04:11:32.896Z,101153.66
2022-10-01T04:14:00.044Z,101149.13
2022-10-01T04:16:27.480Z,101154.50
2022-10-01T04:18:55.279Z,101141.16
2022-10-01T04:21:22.346Z,101147.50
2022-10-01T04:23:50.292Z,101148.28
2022-10-01T04:26:19.042Z,101141.06
2022-10-01T04:28:46.960Z,101142.91
2022-10-01T04:31:27.110Z,101146.66
2022-10-01T04:33:56.757Z,101151.28
2022-10-01T04:36:25.470Z,101155.78
2022-10-01T04:38:57.931Z,101151.28
2022-10-01T04:41:26.566Z,101145.25
2022-10-01T04:43:53.627Z,101134.38
2022-10-01T04:46:20.743Z,101130.81
2022-10-01T04:48:49.343Z,101142.22
2022-10-01T04:51:17.609Z,101129.75
2022-10-01T04:53:44.608Z,101135.13
2022-10-01T04:56:11.791Z,101136.84
2022-10-01T04:58:38.830Z,101136.84
2022-10-01T05:01:05.993Z,101145.81
2022-10-01T05:03:33.183Z,101145.69
2022-10-01T05:06:00.435Z,101145.69
2022-10-01T05:08:27.462Z,101151.91
2022-10-01T05:10:54.412Z,101157.19
2022-10-01T05:13:21.407Z,101162.59
2022-10-01T05:15:52.338Z,101158.91
2022-10-01T05:18:19.636Z,101158.91
2022-10-01T05:20:46.868Z,101165.16
2022-10-01T05:23:13.925Z,101173.97
2022-10-01T05:25:41.075Z,101182.91
2022-10-01T05:28:08.082Z,101183.00
2022-10-01T05:30:35.182Z,101189.25
2022-10-01T05:33:04.590Z,101187.31
2022-10-01T05:35:32.043Z,101187.25
2022-10-01T05:38:01.700Z,101183.50
2022-10-01T05:40:30.032Z,101179.81
2022-10-01T05:42:59.826Z,101194.78
2022-10-01T05:45:29.352Z,101200.06
2022-10-01T05:48:08.450Z,101200.91
2022-10-01T05:50:40.622Z,101199.94
2022-10-01T05:53:10.419Z,101206.50
2022-10-01T05:55:37.720Z,101205.53
2022-10-01T05:58:10.679Z,101198.22
2022-10-01T06:00:40.625Z,101200.50
2022-10-01T06:03:08.691Z,101205.53
2022-10-01T06:05:36.702Z,101221.47
2022-10-01T06:08:09.747Z,101211.34
2022-10-01T06:10:37.176Z,101209.41
2022-10-01T06:13:07.631Z,101215.44
2022-10-01T06:15:38.225Z,101226.00
2022-10-01T06:18:10.015Z,101211.47
2022-10-01T06:20:38.548Z,101216.72
2022-10-01T06:23:11.255Z,101211.97
2022-10-01T06:25:43.555Z,101226.41
2022-10-01T06:28:14.906Z,101222.53
2022-10-01T06:30:43.695Z,101223.38
2022-10-01T06:33:14.456Z,101225.88
2022-10-01T06:35:44.817Z,101215.00
2022-10-01T06:38:12.008Z,101220.38
2022-10-01T06:40:39.639Z,101226.41
2022-10-01T06:43:08.404Z,101229.75
2022-10-01T06:45:38.963Z,101230.59
2022-10-01T06:48:06.270Z,101237.38
2022-10-01T06:50:34.930Z,101231.16
2022-10-01T06:53:02.160Z,101242.78
2022-10-01T06:55:33.196Z,101233.84
2022-10-01T06:58:06.793Z,101231.56
2022-10-01T07:00:36.826Z,101226.69
2022-10-01T07:03:10.914Z,101234.66
2022-10-01T07:05:40.655Z,101230.25
2022-10-01T07:08:08.675Z,101245.44
2022-10-01T07:10:37.510Z,101241.91
2022-10-01T07:13:14.272Z,101253.19
2022-10-01T07:15:41.561Z,101262.88
2022-10-01T07:18:09.761Z,101252.97
2022-10-01T07:20:39.951Z,101258.97
2022-10-01T07:23:11.612Z,101256.63
2022-10-01T07:25:40.722Z,101255.41
2022-10-01T07:28:16.823Z,101252.38
2022-10-01T07:31:06.754Z,101249.13
2022-10-01T07:33:34.055Z,101258.50
2022-10-01T07:36:06.551Z,101247.38
2022-10-01T07:38:34.546Z,101265.16
2022-10-01T07:41:03.377Z,101269.34
2022-10-01T07:43:33.056Z,101263.63
2022-10-01T07:46:02.080Z,101268.66
2022-10-01T07:48:29.235Z,101275.78
2022-10-01T07:50:57.853Z,101272.97
2022-10-01T07:53:25.785Z,101277.91
2022-10-01T07:55:52.800Z,101284.03
2022-10-01T07:58:24.270Z,101290.81
2022-10-01T08:00:56.306Z,101276.13
2022-10-01T08:03:24.824Z,101293.81
2022-10-01T08:05:53.770Z,101291.00
2022-10-01T08:08:21.622Z,101299.69
2022-10-01T08:10:50.207Z,101303.25
2022-10-01T08:13:18.475Z,101306.34
2022-10-01T08:15:50.659Z,101304.19
2022-10-01T08:18:18.053Z,101313.72
2022-10-01T08:20:46.023Z,101303.63
2022-10-01T08:23:15.509Z,101299.94
2022-10-01T08:25:44.187Z,101300.56
2022-10-01T08:28:12.589Z,101296.06
2022-10-01T08:30:42.697Z,101298.16
2022-10-01T08:33:14.334Z,101309.72
2022-10-01T08:35:43.666Z,101314.34
2022-10-01T08:38:12.767Z,101306.78
2022-10-01T08:40:48.342Z,101298.69
2022-10-01T08:43:38.465Z,101297.81
2022-10-01T08:46:16.686Z,101285.81
2022-10-01T08:49:11.554Z,101288.53
2022-10-01T08:52:18.243Z,101288.16
2022-10-01T08:55:26.629Z,101296.25
2022-10-01T08:58:01.043Z,101296.50
2022-10-01T09:00:32.043Z,101288.78
2022-10-01T09:03:06.693Z,101292.09
2022-10-01T09:06:15.573Z,101294.47
2022-10-01T09:09:25.544Z,101300.34
2022-10-01T09:12:31.302Z,101303.56
2022-10-01T09:15:23.847Z,101303.19
2022-10-01T09:18:02.096Z,101297.78
2022-10-01T09:20:59.429Z,101293.25
2022-10-01T09:23:31.021Z,101301.38
2022-10-01T09:25:59.995Z,101300.13
2022-10-01T09:28:33.782Z,101289.00
2022-10-01T09:31:26.677Z,101292.84
2022-10-01T09:34:15.182Z,101292.97
2022-10-01T09:37:05.608Z,101282.31
2022-10-01T09:39:47.075Z,101275.97
2022-10-01T09:42:14.284Z,101280.13
2022-10-01T09:44:42.828Z,101275.97
2022-10-01T09:47:19.359Z,101265.28
2022-10-01T09:49:49.209Z,101260.50
2022-10-01T09:52:28.251Z,101260.25
2022-10-01T09:55:23.162Z,101267.97
2022-10-01T09:58:29.469Z,101266.63
2022-10-01T10:00:57.517Z,101262.97
2022-10-01T10:03:31.211Z,101265.53
2022-10-01T10:06:02.367Z,101260.50
2022-10-01T10:08:33.792Z,101268.97
2022-10-01T10:11:06.122Z,101264.91
2022-10-01T10:13:51.023Z,101260.59
2022-10-01T10:16:35.301Z,101256.91
2022-10-01T10:19:23.521Z,101255.31
2022-10-01T10:22:00.621Z,101264.03
2022-10-01T10:24:34.650Z,101261.09
2022-10-01T10:27:04.219Z,101254.06
2022-10-01T10:29:35.751Z,101248.81
2022-10-01T10:32:33.884Z,101242.19
2022-10-01T10:35:05.218Z,101229.75
2022-10-01T10:37:37.065Z,101229.00
2022-10-01T10:40:08.295Z,101228.13
2022-10-01T10:42:38.769Z,101225.50
2022-10-01T10:45:29.722Z,101222.28
2022-10-01T10:47:58.077Z,101218.81
2022-10-01T10:50:39.917Z,101225.41
2022-10-01T10:53:28.640Z,101235.53
2022-10-01T10:56:05.927Z,101231.31
2022-10-01T10:58:40.345Z,101234.09
2022-10-01T11:01:25.930Z,101250.25
2022-10-01T11:03:58.064Z,101250.84
2022-10-01T11:06:25.473Z,101249.16
2022-10-01T11:09:04.946Z,101231.38
2022-10-01T11:12:00.913Z,101241.72
2022-10-01T11:14:59.629Z,101248.56
2022-10-01T11:17:49.262Z,101236.69
2022-10-01T11:20:34.193Z,101232.63
2022-10-01T11:23:30.247Z,101245.16
2022-10-01T11:26:27.290Z,101229.09
2022-10-01T11:29:15.179Z,101218.47
2022-10-01T11:32:03.150Z,101228.03
2022-10-01T11:34:51.890Z,101222.81
2022-10-01T11:38:21.723Z,101216.25
2022-10-01T11:40:54.763Z,101221.66
2022-10-01T11:43:33.194Z,101212.88
2022-10-01T11:46:10.064Z,101206.94
2022-10-01T11:48:52.168Z,101209.94
2022-10-01T11:51:31.995Z,101209.22
2022-10-01T11:54:06.945Z,101219.34
2022-10-01T11:57:00.463Z,101199.72
2022-10-01T11:59:37.943Z,101191.16
2022-10-01T12:11:19.039Z,101190.41
2022-10-01T12:13:58.563Z,101185.44
2022-10-01T12:16:56.476Z,101181.28
2022-10-01T12:19:37.010Z,101175.16
2022-10-01T12:22:30.038Z,101173.88
2022-10-01T12:24:57.738Z,101169.47
2022-10-01T12:28:06.575Z,101163.78
2022-10-01T12:31:00.962Z,101158.75
2022-10-01T12:33:40.264Z,101159.19
2022-10-01T12:36:44.734Z,101149.03
2022-10-01T12:39:44.119Z,101142.63
2022-10-01T12:42:45.281Z,101149.59
2022-10-01T12:45:35.759Z,101146.88
2022-10-01T12:48:24.630Z,101145.19
2022-10-01T12:51:03.027Z,101126.91
2022-10-01T12:53:41.976Z,101136.31
2022-10-01T12:56:38.336Z,101135.44
2022-10-01T12:59:24.409Z,101133.75
2022-10-01T13:02:19.846Z,101118.59
2022-10-01T13:05:21.121Z,101102.28
2022-10-01T13:08:16.948Z,101096.56
2022-10-01T13:11:23.189Z,101094.84
2022-10-01T13:13:52.949Z,101089.41
2022-10-01T13:16:42.318Z,101076.47
2022-10-01T13:19:24.959Z,101080.47
2022-10-01T13:22:10.519Z,101072.00
2022-10-01T13:24:50.424Z,101073.28
2022-10-01T13:27:41.257Z,101070.66
2022-10-01T13:30:23.029Z,101067.63
2022-10-01T13:33:01.367Z,101069.78
2022-10-01T13:35:39.695Z,101062.59
2022-10-01T13:38:29.415Z,101064.56
2022-10-01T13:41:13.985Z,101063.69
2022-10-01T13:43:56.255Z,101069.81
2022-10-01T13:46:28.454Z,101063.84
2022-10-01T13:48:57.287Z,101071.06
2022-10-01T13:51:38.166Z,101073.09
2022-10-01T13:54:33.532Z,101059.56
2022-10-01T13:57:10.269Z,101067.09
2022-10-01T13:59:39.063Z,101091.44
2022-10-01T14:02:32.050Z,101075.81
2022-10-01T14:05:23.259Z,101085.81
2022-10-01T14:07:59.039Z,101083.03
2022-10-01T14:10:59.844Z,101068.91
2022-10-01T14:13:48.171Z,101057.00
2022-10-01T14:16:17.309Z,101061.16
2022-10-01T14:18:49.558Z,101068.66
2022-10-01T14:21:36.940Z,101075.66
2022-10-01T14:25:00.945Z,101069.38
2022-10-01T14:27:46.839Z,101061.91
2022-10-01T14:30:22.852Z,101051.72
2022-10-01T14:33:31.354Z,101060.03
2022-10-01T14:36:09.074Z,101063.78
2022-10-01T14:38:36.468Z,101062.53
2022-10-01T14:41:04.808Z,101051.50
2022-10-01T14:43:33.359Z,101051.50
2022-10-01T14:46:05.432Z,101042.34
2022-10-01T14:48:40.411Z,101032.06
2022-10-01T14:51:27.630Z,101028.69
2022-10-01T14:54:02.513Z,101023.63
2022-10-01T14:56:30.460Z,101031.06
2022-10-01T14:59:03.367Z,101040.94
2022-10-01T15:01:31.149Z,101043.13
2022-10-01T15:03:58.572Z,101044.69
2022-10-01T15:06:30.001Z,101046.38
2022-10-01T15:09:14.890Z,101033.88
2022-10-01T15:11:44.668Z,101024.56
2022-10-01T15:14:22.851Z,101022.88
2022-10-01T15:16:51.210Z,101018.97
2022-10-01T15:19:22.985Z,101021.31
2022-10-01T15:21:57.076Z,101025.00
2022-10-01T15:24:45.015Z,101029.59
2022-10-01T15:27:15.646Z,101032.78
2022-10-01T15:29:44.304Z,101038.34
2022-10-01T15:32:18.979Z,101038.22
2022-10-01T15:35:07.316Z,101044.34
2022-10-01T15:40:12.430Z,101041.06
2022-10-01T15:42:40.573Z,101035.63
2022-10-01T15:45:07.889Z,101042.00
2022-10-01T15:47:56.736Z,101038.94
2022-10-01T15:50:36.527Z,101028.09
2022-10-01T15:53:15.272Z,101030.81
2022-10-01T15:55:53.336Z,101035.84
2022-10-01T15:58:30.432Z,101031.13
2022-10-01T16:01:12.425Z,101031.44
2022-10-01T16:03:49.829Z,101031.56
2022-10-01T16:06:29.897Z,101019.84
2022-10-01T16:09:22.501Z,101015.19
2022-10-01T16:12:18.589Z,101031.50
2022-10-01T16:15:01.741Z,101029.94
2022-10-01T16:17:31.209Z,101029.22
2022-10-01T16:20:18.749Z,101018.34
2022-10-01T16:22:47.088Z,101024.78
2022-10-01T16:25:23.754Z,101026.09
2022-10-01T16:28:04.403Z,101031.13
2022-10-01T16:30:33.942Z,101044.13
2022-10-01T16:33:05.995Z,101041.72
2022-10-01T16:35:36.001Z,101045.75
2022-10-01T16:38:08.241Z,101035.31
2022-10-01T16:40:48.049Z,101044.72
2022-10-01T16:43:24.322Z,101023.47
2022-10-01T16:45:51.975Z,101030.19
2022-10-01T16:48:24.571Z,101019.63
2022-10-01T16:50:58.919Z,101026.50
2022-10-01T16:53:27.349Z,101035.25
2022-10-01T16:55:56.409Z,101033.97
2022-10-01T16:58:24.815Z,101026.41
2022-10-01T17:00:52.376Z,101030.56
2022-10-01T17:03:22.522Z,101041.13
2022-10-01T17:05:50.075Z,101062.53
2022-10-01T17:08:17.452Z,101064.13
2022-10-01T17:10:50.783Z,101074.69
2022-10-01T17:13:18.288Z,101077.00
2022-10-01T17:15:48.520Z,101082.97
2022-10-01T17:18:16.319Z,101090.63
2022-10-01T17:20:43.784Z,101086.63
2022-10-01T17:23:13.880Z,101077.06
2022-10-01T17:25:42.412Z,101080.22
2022-10-01T17:28:17.354Z,101078.75
2022-10-01T17:30:48.039Z,101075.63
2022-10-01T17:33:19.365Z,101071.50
2022-10-01T17:35:54.716Z,101080.03
2022-10-01T17:38:23.099Z,101066.91
2022-10-01T17:40:56.501Z,101078.16
2022-10-01T17:43:27.516Z,101086.56
2022-10-01T17:46:04.176Z,101119.47
2022-10-01T17:48:31.611Z,101116.19
2022-10-01T17:51:05.658Z,101114.75
2022-10-01T17:53:41.363Z,101115.03
2022-10-01T17:56:15.171Z,101123.44
2022-10-01T17:58:45.703Z,101120.13
2022-10-01T18:01:19.572Z,101131.25
2022-10-01T18:03:47.231Z,101130.66
2022-10-01T18:06:16.083Z,101141.75
2022-10-01T18:08:58.719Z,101145.59
2022-10-01T18:11:28.415Z,101160.38
2022-10-01T18:13:55.902Z,101157.06
2022-10-01T18:16:24.606Z,101155.59
2022-10-01T18:21:46.210Z,101167.69
2022-10-01T18:24:13.367Z,101169.66
2022-10-01T18:26:40.346Z,101174.38
2022-10-01T18:29:07.294Z,101179.88
2022-10-01T18:31:41.621Z,101173.88
2022-10-01T18:34:21.267Z,101184.97
2022-10-01T18:36:59.687Z,101193.34
2022-10-01T18:39:41.197Z,101187.50
2022-10-01T18:42:27.854Z,101185.06
2022-10-01T18:45:02.266Z,101190.56
2022-10-01T18:47:48.165Z,101190.84
2022-10-01T18:50:56.714Z,101197.41
2022-10-01T18:53:51.462Z,101205.78
2022-10-01T18:56:35.383Z,101205.03
2022-10-01T19:00:12.669Z,101205.28
2022-10-01T19:03:10.479Z,101209.09
2022-10-01T19:06:08.650Z,101205.81
2022-10-01T19:08:38.287Z,101208.75
2022-10-01T19:11:20.034Z,101212.47
2022-10-01T19:14:40.785Z,101212.97
2022-10-01T19:17:30.965Z,101213.38
2022-10-01T19:20:23.088Z,101218.19
2022-10-01T19:23:16.881Z,101227.25
2022-10-01T19:25:51.239Z,101230.22
2022-10-01T19:28:45.101Z,101242.28
2022-10-01T19:31:26.981Z,101242.53
2022-10-01T19:34:06.195Z,101244.78
2022-10-01T19:36:41.941Z,101235.16
2022-10-01T19:39:23.404Z,101245.97
2022-10-01T19:42:07.032Z,101236.13
2022-10-01T19:45:14.909Z,101231.59
2022-10-01T19:47:51.013Z,101224.47
2022-10-01T19:50:29.809Z,101229.13
2022-10-01T19:52:59.351Z,101231.97
2022-10-01T19:55:32.928Z,101245.75
2022-10-01T19:58:17.062Z,101238.75
2022-10-01T20:00:53.512Z,101239.84
2022-10-01T20:03:40.294Z,101241.09
2022-10-01T20:06:30.427Z,101243.19
2022-10-01T20:09:13.258Z,101252.38
2022-10-01T20:11:49.710Z,101260.88
2022-10-01T20:14:47.756Z,101256.56
2022-10-01T20:17:38.671Z,101268.72
2022-10-01T20:20:39.748Z,101266.50
2022-10-01T20:23:34.474Z,101271.19
2022-10-01T20:26:38.829Z,101258.91
2022-10-01T20:29:08.553Z,101271.31
2022-10-01T20:31:52.975Z,101292.28
2022-10-01T20:34:35.238Z,101299.53
2022-10-01T20:37:35.221Z,101311.56
2022-10-01T20:40:24.876Z,101320.88
2022-10-01T20:43:21.536Z,101321.00
2022-10-01T20:45:52.071Z,101318.41
2022-10-01T20:48:32.315Z,101325.66
2022-10-01T20:51:10.684Z,101331.06
2022-10-01T20:53:45.430Z,101326.75
2022-10-01T20:56:19.256Z,101329.47
2022-10-01T20:59:08.132Z,101323.44
2022-10-01T21:01:53.267Z,101317.41
2022-10-01T21:04:28.080Z,101326.50
2022-10-01T21:07:14.376Z,101317.78
2022-10-01T21:09:47.119Z,101319.63
2022-10-01T21:12:22.062Z,101323.44
2022-10-01T21:14:57.204Z,101320.84
2022-10-01T21:17:58.490Z,101321.81
2022-10-01T21:21:13.285Z,101319.59
2022-10-01T21:24:01.339Z,101312.72
2022-10-01T21:27:18.798Z,101313.69
2022-10-01T21:29:59.876Z,101327.41
2022-10-01T21:33:06.380Z,101325.16
2022-10-01T21:35:52.559Z,101324.31
2022-10-01T21:38:44.764Z,101349.47
2022-10-01T21:41:31.770Z,101348.69
2022-10-01T21:44:22.547Z,101334.34
2022-10-01T21:46:58.092Z,101320.09
2022-10-01T21:49:47.656Z,101316.44
2022-10-01T21:52:23.795Z,101304.81
2022-10-01T21:55:30.085Z,101304.91
2022-10-01T21:58:14.473Z,101299.63
2022-10-01T22:00:41.858Z,101328.78
2022-10-01T22:03:22.365Z,101316.28
2022-10-01T22:06:09.898Z,101308.06
2022-10-01T22:09:07.421Z,101316.28
2022-10-01T22:11:46.352Z,101321.69
2022-10-01T22:14:20.410Z,101320.84
2022-10-01T22:17:03.426Z,101307.66
2022-10-01T22:19:39.332Z,101315.03
2022-10-01T22:22:12.917Z,101336.94
2022-10-01T22:24:49.386Z,101348.09
2022-10-01T22:27:40.118Z,101351.97
2022-10-01T22:30:18.296Z,101353.81
2022-10-01T22:32:51.093Z,101358.50
2022-10-01T22:35:32.837Z,101358.50
2022-10-01T22:38:14.798Z,101342.53
2022-10-01T22:40:49.979Z,101348.03
2022-10-01T22:43:17.259Z,101346.94
2022-10-01T22:46:44.538Z,101354.28
2022-10-01T22:49:26.651Z,101369.72
2022-10-01T22:52:39.895Z,101373.28
2022-10-01T22:55:21.686Z,101368.88
2022-10-01T22:58:36.423Z,101370.59
2022-10-01T23:01:44.378Z,101358.94
2022-10-01T23:04:48.641Z,101366.03
2022-10-01T23:07:27.108Z,101364.97
2022-10-01T23:10:42.222Z,101372.19
2022-10-01T23:13:37.978Z,101374.91
2022-10-01T23:16:24.967Z,101375.63
2022-10-01T23:19:23.546Z,101382.13
2022-10-01T23:22:08.068Z,101381.16
2022-10-01T23:25:04.890Z,101386.53
2022-10-01T23:28:24.691Z,101402.72
2022-10-01T23:31:21.636Z,101411.81
2022-10-01T23:34:03.502Z,101419.97
2022-10-01T23:37:16.171Z,101414.72
2022-10-01T23:39:48.053Z,101413.81
2022-10-01T23:42:24.851Z,101415.56
2022-10-01T23:45:16.977Z,101412.03
2022-10-01T23:47:59.505Z,101419.56
2022-10-01T23:51:11.306Z,101421.50
2022-10-01T23:53:58.168Z,101417.44
2022-10-01T23:56:48.983Z,101415.81
2022-10-01T23:59:35.622Z,101423.06
